sensor_id;sensor_type;location;lat;lon;timestamp;pressure;altitude;pressure_sealevel;temperature;humidity
22830;BME280;11581;51.250;6.778;2023-04-12T00:01:39;100344.97;;;13.26;54.33
22830;BME280;11581;51.250;6.778;2023-04-12T00:04:05;100272.56;;;12.65;54.52
22830;BME280;11581;51.250;6.778;2023-04-12T00:06:31;100310.81;;;12.89;55.32
22830;BME280;11581;51.250;6.778;2023-04-12T00:09:00;100331.72;;;12.86;56.10
22830;BME280;11581;51.250;6.778;2023-04-12T00:11:30;100237.25;;;12.23;56.84
22830;BME280;11581;51.250;6.778;2023-04-12T00:13:56;100309.38;;;12.63;57.06
22830;BME280;11581;51.250;6.778;2023-04-12T00:16:23;100264.47;;;12.26;57.43
22830;BME280;11581;51.250;6.778;2023-04-12T00:18:49;100302.75;;;12.43;57.83
22830;BME280;11581;51.250;6.778;2023-04-12T00:21:16;100291.03;;;12.36;58.19
22830;BME280;11581;51.250;6.778;2023-04-12T00:23:44;100293.72;;;12.28;58.76
22830;BME280;11581;51.250;6.778;2023-04-12T00:26:12;100226.94;;;11.88;59.02
22830;BME280;11581;51.250;6.778;2023-04-12T00:28:41;100277.19;;;12.16;59.21
22830;BME280;11581;51.250;6.778;2023-04-12T00:31:07;100260.69;;;12.05;59.71
22830;BME280;11581;51.250;6.778;2023-04-12T00:33:34;100217.41;;;11.85;59.95
22830;BME280;11581;51.250;6.778;2023-04-12T00:36:01;100251.97;;;12.03;60.30
22830;BME280;11581;51.250;6.778;2023-04-12T00:38:28;100247.13;;;11.98;60.62
22830;BME280;11581;51.250;6.778;2023-04-12T00:40:55;100241.31;;;11.95;60.68
22830;BME280;11581;51.250;6.778;2023-04-12T00:43:21;100238.97;;;11.92;60.91
22830;BME280;11581;51.250;6.778;2023-04-12T00:45:53;100230.28;;;11.90;61.32
22830;BME280;11581;51.250;6.778;2023-04-12T00:48:21;100231.47;;;11.87;61.25
22830;BME280;11581;51.250;6.778;2023-04-12T00:50:48;100221.94;;;11.85;61.64
22830;BME280;11581;51.250;6.778;2023-04-12T00:53:17;100215.94;;;11.83;61.92
22830;BME280;11581;51.250;6.778;2023-04-12T00:55:44;100184.19;;;11.56;62.10
22830;BME280;11581;51.250;6.778;2023-04-12T00:58:12;100218.09;;;11.79;62.32
22830;BME280;11581;51.250;6.778;2023-04-12T01:00:40;100197.22;;;11.67;62.48
22830;BME280;11581;51.250;6.778;2023-04-12T01:03:10;100197.91;;;11.77;62.65
22830;BME280;11581;51.250;6.778;2023-04-12T01:05:51;100193.56;;;11.76;63.36
22830;BME280;11581;51.250;6.778;2023-04-12T01:11:12;100176.84;;;11.74;63.52
22830;BME280;11581;51.250;6.778;2023-04-12T01:14:17;100172.69;;;11.71;63.85
22830;BME280;11581;51.250;6.778;2023-04-12T01:16:52;100175.53;;;11.70;63.48
22830;BME280;11581;51.250;6.778;2023-04-12T01:28:37;100113.94;;;11.39;65.72
22830;BME280;11581;51.250;6.778;2023-04-12T01:31:05;100071.03;;;11.00;65.09
22830;BME280;11581;51.250;6.778;2023-04-12T01:33:33;100095.41;;;11.21;65.28
22830;BME280;11581;51.250;6.778;2023-04-12T01:36:06;100128.44;;;11.45;65.92
22830;BME280;11581;51.250;6.778;2023-04-12T01:38:36;100128.78;;;11.42;65.79
22830;BME280;11581;51.250;6.778;2023-04-12T01:41:03;100092.06;;;11.19;65.99
22830;BME280;11581;51.250;6.778;2023-04-12T01:43:30;100115.28;;;11.35;65.99
22830;BME280;11581;51.250;6.778;2023-04-12T01:45:57;100113.75;;;11.32;66.23
22830;BME280;11581;51.250;6.778;2023-04-12T01:48:25;100077.56;;;11.14;66.44
22830;BME280;11581;51.250;6.778;2023-04-12T01:51:03;100095.06;;;11.24;66.61
22830;BME280;11581;51.250;6.778;2023-04-12T01:53:32;100085.59;;;11.22;66.73
22830;BME280;11581;51.250;6.778;2023-04-12T01:56:06;100073.53;;;11.18;67.44
22830;BME280;11581;51.250;6.778;2023-04-12T01:58:34;99860.66;;;9.85;67.27
22830;BME280;11581;51.250;6.778;2023-04-12T02:01:03;100023.06;;;10.84;67.29
22830;BME280;11581;51.250;6.778;2023-04-12T02:03:31;100076.41;;;11.08;67.48
22830;BME280;11581;51.250;6.778;2023-04-12T02:05:58;100002.69;;;10.75;67.60
22830;BME280;11581;51.250;6.778;2023-04-12T02:08:25;99994.03;;;10.73;67.63
22830;BME280;11581;51.250;6.778;2023-04-12T02:10:51;99989.19;;;10.77;67.72
22830;BME280;11581;51.250;6.778;2023-04-12T02:13:19;100013.03;;;10.70;67.88
22830;BME280;11581;51.250;6.778;2023-04-12T02:15:45;100017.69;;;10.92;67.98
22830;BME280;11581;51.250;6.778;2023-04-12T02:18:11;99845.34;;;9.79;67.82
22830;BME280;11581;51.250;6.778;2023-04-12T02:20:41;99959.19;;;10.43;67.80
22830;BME280;11581;51.250;6.778;2023-04-12T02:23:08;99959.19;;;10.51;68.18
22830;BME280;11581;51.250;6.778;2023-04-12T02:25:35;100001.19;;;10.81;68.32
22830;BME280;11581;51.250;6.778;2023-04-12T02:28:02;100003.19;;;10.79;68.34
22830;BME280;11581;51.250;6.778;2023-04-12T02:30:29;99996.00;;;10.71;68.36
22830;BME280;11581;51.250;6.778;2023-04-12T02:32:55;99996.53;;;10.75;68.66
22830;BME280;11581;51.250;6.778;2023-04-12T02:35:26;99898.53;;;10.13;68.70
22830;BME280;11581;51.250;6.778;2023-04-12T02:37:58;99987.03;;;10.72;69.09
22830;BME280;11581;51.250;6.778;2023-04-12T02:40:28;99980.00;;;10.71;69.22
22830;BME280;11581;51.250;6.778;2023-04-12T02:42:55;99970.34;;;10.70;69.42
22830;BME280;11581;51.250;6.778;2023-04-12T02:45:24;99962.34;;;10.70;69.81
22830;BME280;11581;51.250;6.778;2023-04-12T02:47:51;99957.03;;;10.70;69.98
22830;BME280;11581;51.250;6.778;2023-04-12T02:50:22;99908.72;;;10.49;70.22
22830;BME280;11581;51.250;6.778;2023-04-12T02:52:56;99918.00;;;10.61;70.46
22830;BME280;11581;51.250;6.778;2023-04-12T02:55:22;99918.00;;;10.61;70.29
22830;BME280;11581;51.250;6.778;2023-04-12T02:57:50;99914.69;;;10.67;70.82
22830;BME280;11581;51.250;6.778;2023-04-12T03:00:18;99921.19;;;10.65;71.00
22830;BME280;11581;51.250;6.778;2023-04-12T03:02:48;99902.53;;;10.65;71.17
22830;BME280;11581;51.250;6.778;2023-04-12T03:05:23;99901.84;;;10.63;71.04
22830;BME280;11581;51.250;6.778;2023-04-12T03:07:50;99817.09;;;10.18;70.67
22830;BME280;11581;51.250;6.778;2023-04-12T03:10:21;99903.03;;;10.60;71.33
22830;BME280;11581;51.250;6.778;2023-04-12T03:12:55;99876.38;;;10.52;71.36
22830;BME280;11581;51.250;6.778;2023-04-12T03:15:28;99867.69;;;10.58;71.34
22830;BME280;11581;51.250;6.778;2023-04-12T03:17:55;99869.72;;;10.56;71.41
22830;BME280;11581;51.250;6.778;2023-04-12T03:20:27;99810.75;;;10.27;71.48
22830;BME280;11581;51.250;6.778;2023-04-12T03:23:05;99701.53;;;9.71;71.54
22830;BME280;11581;51.250;6.778;2023-04-12T03:25:35;99832.41;;;10.40;71.48
22830;BME280;11581;51.250;6.778;2023-04-12T03:28:31;99824.03;;;10.51;71.57
22830;BME280;11581;51.250;6.778;2023-04-12T03:30:59;99815.06;;;10.44;71.75
22830;BME280;11581;51.250;6.778;2023-04-12T03:33:35;99815.41;;;10.49;71.73
22830;BME280;11581;51.250;6.778;2023-04-12T03:36:04;99820.75;;;10.49;71.86
22830;BME280;11581;51.250;6.778;2023-04-12T03:38:30;99796.75;;;10.41;71.85
22830;BME280;11581;51.250;6.778;2023-04-12T03:40:58;99797.72;;;10.48;71.81
22830;BME280;11581;51.250;6.778;2023-04-12T03:43:33;99794.06;;;10.49;72.04
22830;BME280;11581;51.250;6.778;2023-04-12T03:46:05;99804.06;;;10.47;72.19
22830;BME280;11581;51.250;6.778;2023-04-12T03:48:32;99766.75;;;10.47;72.27
22830;BME280;11581;51.250;6.778;2023-04-12T03:50:59;99758.63;;;10.41;72.44
22830;BME280;11581;51.250;6.778;2023-04-12T03:53:34;99724.50;;;10.20;72.56
22830;BME280;11581;51.250;6.778;2023-04-12T03:56:01;99753.41;;;10.47;72.41
22830;BME280;11581;51.250;6.778;2023-04-12T03:58:30;99691.19;;;10.16;72.49
22830;BME280;11581;51.250;6.778;2023-04-12T04:00:59;99731.28;;;10.39;72.31
22830;BME280;11581;51.250;6.778;2023-04-12T04:03:29;99729.59;;;10.46;72.38
22830;BME280;11581;51.250;6.778;2023-04-12T04:06:07;99724.94;;;10.48;72.48
22830;BME280;11581;51.250;6.778;2023-04-12T04:08:34;99726.75;;;10.47;72.60
22830;BME280;11581;51.250;6.778;2023-04-12T04:11:00;99718.59;;;10.49;72.37
22830;BME280;11581;51.250;6.778;2023-04-12T04:13:33;99706.13;;;10.49;72.25
22830;BME280;11581;51.250;6.778;2023-04-12T04:16:05;99721.09;;;10.50;72.40
22830;BME280;11581;51.250;6.778;2023-04-12T04:18:33;99709.25;;;10.53;72.07
22830;BME280;11581;51.250;6.778;2023-04-12T04:21:01;99706.59;;;10.53;72.07
22830;BME280;11581;51.250;6.778;2023-04-12T04:23:31;99661.19;;;10.30;72.16
22830;BME280;11581;51.250;6.778;2023-04-12T04:26:04;99709.75;;;10.56;71.99
22830;BME280;11581;51.250;6.778;2023-04-12T04:28:39;99689.44;;;10.55;72.10
22830;BME280;11581;51.250;6.778;2023-04-12T04:31:11;99691.72;;;10.58;72.06
22830;BME280;11581;51.250;6.778;2023-04-12T04:33:39;99635.53;;;10.29;71.95
22830;BME280;11581;51.250;6.778;2023-04-12T04:36:07;99659.09;;;10.48;71.87
22830;BME280;11581;51.250;6.778;2023-04-12T04:38:35;99663.75;;;10.54;71.97
22830;BME280;11581;51.250;6.778;2023-04-12T04:41:07;99694.03;;;10.61;71.90
22830;BME280;11581;51.250;6.778;2023-04-12T04:43:47;99663.06;;;10.60;72.10
22830;BME280;11581;51.250;6.778;2023-04-12T04:46:16;99665.91;;;10.59;72.16
22830;BME280;11581;51.250;6.778;2023-04-12T04:48:49;99674.06;;;10.57;72.42
22830;BME280;11581;51.250;6.778;2023-04-12T04:51:19;99650.13;;;10.49;72.35
22830;BME280;11581;51.250;6.778;2023-04-12T04:53:46;99668.44;;;10.52;72.50
22830;BME280;11581;51.250;6.778;2023-04-12T04:56:14;99627.06;;;10.26;72.71
22830;BME280;11581;51.250;6.778;2023-04-12T04:58:42;99668.13;;;10.47;73.06
22830;BME280;11581;51.250;6.778;2023-04-12T05:01:09;99662.28;;;10.44;73.17
22830;BME280;11581;51.250;6.778;2023-04-12T05:03:37;99572.22;;;9.93;73.51
22830;BME280;11581;51.250;6.778;2023-04-12T05:06:05;99663.81;;;10.38;73.77
22830;BME280;11581;51.250;6.778;2023-04-12T05:08:33;99624.91;;;10.21;74.19
22830;BME280;11581;51.250;6.778;2023-04-12T05:10:59;99646.50;;;10.34;74.49
22830;BME280;11581;51.250;6.778;2023-04-12T05:13:27;99625.38;;;10.33;74.87
22830;BME280;11581;51.250;6.778;2023-04-12T05:15:54;99639.88;;;10.30;75.28
22830;BME280;11581;51.250;6.778;2023-04-12T05:18:20;99640.22;;;10.27;75.92
22830;BME280;11581;51.250;6.778;2023-04-12T05:20:47;99633.03;;;10.28;76.41
22830;BME280;11581;51.250;6.778;2023-04-12T05:23:14;99627.91;;;10.26;77.02
22830;BME280;11581;51.250;6.778;2023-04-12T05:25:47;99456.28;;;9.20;77.68
22830;BME280;11581;51.250;6.778;2023-04-12T05:28:16;99627.41;;;10.23;78.00
22830;BME280;11581;51.250;6.778;2023-04-12T05:30:43;99617.59;;;10.23;78.48
22830;BME280;11581;51.250;6.778;2023-04-12T05:33:13;99617.75;;;10.22;78.95
22830;BME280;11581;51.250;6.778;2023-04-12T05:35:43;99608.09;;;10.21;79.35
22830;BME280;11581;51.250;6.778;2023-04-12T05:38:10;99523.66;;;9.75;79.93
22830;BME280;11581;51.250;6.778;2023-04-12T05:40:36;99594.94;;;10.19;80.82
22830;BME280;11581;51.250;6.778;2023-04-12T05:43:05;99587.94;;;10.18;81.07
22830;BME280;11581;51.250;6.778;2023-04-12T05:45:32;99580.97;;;10.17;81.61
22830;BME280;11581;51.250;6.778;2023-04-12T05:47:59;99572.13;;;10.17;82.69
22830;BME280;11581;51.250;6.778;2023-04-12T05:50:25;99497.53;;;9.70;83.32
22830;BME280;11581;51.250;6.778;2023-04-12T05:52:53;99577.63;;;10.15;83.52
22830;BME280;11581;51.250;6.778;2023-04-12T05:55:25;99579.28;;;10.16;83.80
22830;BME280;11581;51.250;6.778;2023-04-12T05:57:51;99540.25;;;9.93;84.18
22830;BME280;11581;51.250;6.778;2023-04-12T06:00:20;99570.66;;;10.14;84.54
22830;BME280;11581;51.250;6.778;2023-04-12T06:02:47;99540.38;;;9.99;84.87
22830;BME280;11581;51.250;6.778;2023-04-12T06:05:15;99566.31;;;10.13;85.33
22830;BME280;11581;51.250;6.778;2023-04-12T06:07:42;99559.16;;;10.14;85.53
22830;BME280;11581;51.250;6.778;2023-04-12T06:10:13;99553.84;;;10.14;85.89
22830;BME280;11581;51.250;6.778;2023-04-12T06:12:40;99556.31;;;10.15;86.39
22830;BME280;11581;51.250;6.778;2023-04-12T06:15:07;99464.75;;;9.70;86.57
22830;BME280;11581;51.250;6.778;2023-04-12T06:17:35;99450.69;;;9.53;87.18
22830;BME280;11581;51.250;6.778;2023-04-12T06:20:02;99551.34;;;10.12;87.83
22830;BME280;11581;51.250;6.778;2023-04-12T06:22:32;99551.16;;;10.22;88.54
22830;BME280;11581;51.250;6.778;2023-04-12T06:24:58;99511.41;;;9.96;88.10
22830;BME280;11581;51.250;6.778;2023-04-12T06:27:24;99541.31;;;10.22;88.85
22830;BME280;11581;51.250;6.778;2023-04-12T06:29:51;99541.31;;;10.22;89.26
22830;BME280;11581;51.250;6.778;2023-04-12T06:32:18;99501.72;;;10.03;89.64
22830;BME280;11581;51.250;6.778;2023-04-12T06:34:45;99529.50;;;10.25;89.94
22830;BME280;11581;51.250;6.778;2023-04-12T06:37:13;99535.63;;;10.25;90.49
22830;BME280;11581;51.250;6.778;2023-04-12T06:39:40;99531.97;;;10.26;90.88
22830;BME280;11581;51.250;6.778;2023-04-12T06:42:06;99519.47;;;10.27;91.36
22830;BME280;11581;51.250;6.778;2023-04-12T06:44:37;99522.97;;;10.27;91.82
22830;BME280;11581;51.250;6.778;2023-04-12T06:47:03;99456.84;;;9.92;92.18
22830;BME280;11581;51.250;6.778;2023-04-12T06:49:30;99499.63;;;10.29;92.46
22830;BME280;11581;51.250;6.778;2023-04-12T06:51:56;99497.63;;;10.31;92.74
22830;BME280;11581;51.250;6.778;2023-04-12T06:54:23;99494.78;;;10.33;93.07
22830;BME280;11581;51.250;6.778;2023-04-12T06:56:49;99496.59;;;10.32;93.11
22830;BME280;11581;51.250;6.778;2023-04-12T06:59:16;99475.97;;;10.34;93.40
22830;BME280;11581;51.250;6.778;2023-04-12T07:01:42;99487.28;;;10.36;93.54
22830;BME280;11581;51.250;6.778;2023-04-12T07:04:10;99465.03;;;10.21;93.82
22830;BME280;11581;51.250;6.778;2023-04-12T07:06:36;99477.91;;;10.40;94.12
22830;BME280;11581;51.250;6.778;2023-04-12T07:09:03;99480.22;;;10.43;94.50
22830;BME280;11581;51.250;6.778;2023-04-12T07:11:29;99424.13;;;10.14;94.58
22830;BME280;11581;51.250;6.778;2023-04-12T07:13:59;99474.19;;;10.49;94.84
22830;BME280;11581;51.250;6.778;2023-04-12T07:16:26;99465.84;;;10.52;95.07
22830;BME280;11581;51.250;6.778;2023-04-12T07:18:53;99426.97;;;10.35;95.09
22830;BME280;11581;51.250;6.778;2023-04-12T07:21:19;99469.47;;;10.59;95.23
22830;BME280;11581;51.250;6.778;2023-04-12T07:23:45;99281.00;;;9.55;95.27
22830;BME280;11581;51.250;6.778;2023-04-12T07:26:15;99459.72;;;10.66;95.88
22830;BME280;11581;51.250;6.778;2023-04-12T07:28:42;99452.09;;;10.63;95.87
22830;BME280;11581;51.250;6.778;2023-04-12T07:31:08;99449.47;;;10.78;96.11
22830;BME280;11581;51.250;6.778;2023-04-12T07:33:35;99441.94;;;10.81;95.87
22830;BME280;11581;51.250;6.778;2023-04-12T07:36:04;99408.06;;;10.67;95.46
22830;BME280;11581;51.250;6.778;2023-04-12T07:38:31;99358.81;;;10.41;95.86
22830;BME280;11581;51.250;6.778;2023-04-12T07:40:57;99447.19;;;10.89;95.69
22830;BME280;11581;51.250;6.778;2023-04-12T07:43:24;99430.66;;;10.94;95.89
22830;BME280;11581;51.250;6.778;2023-04-12T07:45:50;99432.13;;;10.96;95.92
22830;BME280;11581;51.250;6.778;2023-04-12T07:48:17;99420.47;;;10.97;95.47
22830;BME280;11581;51.250;6.778;2023-04-12T07:50:43;99416.59;;;11.00;95.71
22830;BME280;11581;51.250;6.778;2023-04-12T07:55:44;99425.03;;;11.03;96.13
22830;BME280;11581;51.250;6.778;2023-04-12T07:58:11;99383.66;;;10.78;95.93
22830;BME280;11581;51.250;6.778;2023-04-12T08:00:37;99413.44;;;10.96;96.07
22830;BME280;11581;51.250;6.778;2023-04-12T08:03:04;99429.38;;;11.04;96.31
22830;BME280;11581;51.250;6.778;2023-04-12T08:05:30;99423.88;;;11.06;96.90
22830;BME280;11581;51.250;6.778;2023-04-12T08:07:57;99432.31;;;11.09;96.99
22830;BME280;11581;51.250;6.778;2023-04-12T08:10:23;99425.81;;;11.12;97.32
22830;BME280;11581;51.250;6.778;2023-04-12T08:12:50;99412.38;;;11.05;97.44
22830;BME280;11581;51.250;6.778;2023-04-12T08:15:16;99425.25;;;11.16;97.53
22830;BME280;11581;51.250;6.778;2023-04-12T08:17:43;99417.91;;;11.18;97.46
22830;BME280;11581;51.250;6.778;2023-04-12T08:20:11;99411.34;;;11.21;97.50
22830;BME280;11581;51.250;6.778;2023-04-12T08:22:37;99410.19;;;11.23;97.80
22830;BME280;11581;51.250;6.778;2023-04-12T08:25:04;99404.31;;;11.28;98.04
22830;BME280;11581;51.250;6.778;2023-04-12T08:27:31;99413.47;;;11.25;98.28
22830;BME280;11581;51.250;6.778;2023-04-12T08:29:57;99361.59;;;11.13;98.59
22830;BME280;11581;51.250;6.778;2023-04-12T08:32:24;99365.91;;;11.14;98.53
22830;BME280;11581;51.250;6.778;2023-04-12T08:34:50;99324.50;;;11.04;98.65
22830;BME280;11581;51.250;6.778;2023-04-12T08:37:17;99409.81;;;11.56;98.97
22830;BME280;11581;51.250;6.778;2023-04-12T08:39:43;99403.88;;;11.60;98.73
22830;BME280;11581;51.250;6.778;2023-04-12T08:42:10;99396.28;;;11.57;98.50
22830;BME280;11581;51.250;6.778;2023-04-12T08:44:38;99368.56;;;11.44;97.96
22830;BME280;11581;51.250;6.778;2023-04-12T08:47:09;99391.38;;;11.61;97.83
22830;BME280;11581;51.250;6.778;2023-04-12T08:49:36;99333.03;;;11.28;97.53
22830;BME280;11581;51.250;6.778;2023-04-12T08:52:04;99391.94;;;11.71;97.52
22830;BME280;11581;51.250;6.778;2023-04-12T08:54:34;99332.69;;;11.31;97.84
22830;BME280;11581;51.250;6.778;2023-04-12T08:57:03;99412.56;;;11.77;97.81
22830;BME280;11581;51.250;6.778;2023-04-12T08:59:31;99402.34;;;11.80;97.82
22830;BME280;11581;51.250;6.778;2023-04-12T09:01:58;99349.38;;;11.55;97.85
22830;BME280;11581;51.250;6.778;2023-04-12T09:04:24;99085.31;;;9.96;97.52
22830;BME280;11581;51.250;6.778;2023-04-12T09:06:51;99386.31;;;11.80;97.23
22830;BME280;11581;51.250;6.778;2023-04-12T09:09:17;99396.03;;;11.88;97.38
22830;BME280;11581;51.250;6.778;2023-04-12T09:11:44;99391.72;;;11.87;97.17
22830;BME280;11581;51.250;6.778;2023-04-12T09:14:24;99395.41;;;11.86;97.05
22830;BME280;11581;51.250;6.778;2023-04-12T09:16:50;99241.94;;;10.96;97.12
22830;BME280;11581;51.250;6.778;2023-04-12T09:19:30;99392.38;;;11.89;97.32
22830;BME280;11581;51.250;6.778;2023-04-12T09:21:57;99393.66;;;11.93;97.78
22830;BME280;11581;51.250;6.778;2023-04-12T09:24:23;99332.47;;;11.62;97.83
22830;BME280;11581;51.250;6.778;2023-04-12T09:27:04;99385.72;;;11.99;97.83
22830;BME280;11581;51.250;6.778;2023-04-12T09:29:31;99384.13;;;12.05;98.09
22830;BME280;11581;51.250;6.778;2023-04-12T09:32:06;99369.59;;;11.93;97.64
22830;BME280;11581;51.250;6.778;2023-04-12T09:34:34;99383.38;;;12.11;97.97
22830;BME280;11581;51.250;6.778;2023-04-12T09:37:19;99392.66;;;12.15;98.14
22830;BME280;11581;51.250;6.778;2023-04-12T09:39:46;99387.56;;;12.20;98.44
22830;BME280;11581;51.250;6.778;2023-04-12T09:42:12;99374.09;;;12.28;98.72
22830;BME280;11581;51.250;6.778;2023-04-12T09:44:40;99378.28;;;12.37;99.17
22830;BME280;11581;51.250;6.778;2023-04-12T09:47:06;99336.06;;;12.11;99.51
22830;BME280;11581;51.250;6.778;2023-04-12T09:49:40;99375.59;;;12.58;100.00
22830;BME280;11581;51.250;6.778;2023-04-12T09:52:08;99392.63;;;12.78;100.00
22830;BME280;11581;51.250;6.778;2023-04-12T09:54:45;99379.88;;;13.01;100.00
22830;BME280;11581;51.250;6.778;2023-04-12T09:57:12;99363.91;;;13.14;100.00
22830;BME280;11581;51.250;6.778;2023-04-12T09:59:40;99371.44;;;13.38;100.00
22830;BME280;11581;51.250;6.778;2023-04-12T10:02:27;99358.56;;;13.55;100.00
22830;BME280;11581;51.250;6.778;2023-04-12T10:04:53;99360.69;;;13.72;100.00
22830;BME280;11581;51.250;6.778;2023-04-12T10:07:20;99360.34;;;13.88;100.00
22830;BME280;11581;51.250;6.778;2023-04-12T10:09:46;99358.28;;;14.03;100.00
22830;BME280;11581;51.250;6.778;2023-04-12T10:12:13;99248.50;;;13.43;100.00
22830;BME280;11581;51.250;6.778;2023-04-12T10:14:41;99254.69;;;13.50;98.73
22830;BME280;11581;51.250;6.778;2023-04-12T10:17:08;99228.28;;;13.40;97.04
22830;BME280;11581;51.250;6.778;2023-04-12T10:19:36;99360.03;;;14.24;95.43
22830;BME280;11581;51.250;6.778;2023-04-12T10:22:03;99360.59;;;14.19;94.35
22830;BME280;11581;51.250;6.778;2023-04-12T10:24:30;99363.28;;;14.13;93.49
22830;BME280;11581;51.250;6.778;2023-04-12T10:26:57;99366.75;;;14.07;93.27
22830;BME280;11581;51.250;6.778;2023-04-12T10:29:29;99366.72;;;14.00;93.56
22830;BME280;11581;51.250;6.778;2023-04-12T10:32:16;99364.06;;;14.00;93.98
22830;BME280;11581;51.250;6.778;2023-04-12T10:34:43;99365.72;;;14.01;95.13
22830;BME280;11581;51.250;6.778;2023-04-12T10:37:10;99373.56;;;14.09;95.88
22830;BME280;11581;51.250;6.778;2023-04-12T10:39:43;99374.41;;;14.16;96.65
22830;BME280;11581;51.250;6.778;2023-04-12T10:44:52;99362.72;;;14.30;96.42
22830;BME280;11581;51.250;6.778;2023-04-12T10:50:25;99377.38;;;14.41;94.37
22830;BME280;11581;51.250;6.778;2023-04-12T10:55:46;99376.13;;;14.37;93.40
22830;BME280;11581;51.250;6.778;2023-04-12T10:58:53;99396.97;;;14.41;92.98
22830;BME280;11581;51.250;6.778;2023-04-12T11:01:20;99405.03;;;14.41;92.76
22830;BME280;11581;51.250;6.778;2023-04-12T11:04:07;99397.78;;;14.35;91.99
22830;BME280;11581;51.250;6.778;2023-04-12T11:19:36;99398.91;;;14.00;91.29
22830;BME280;11581;51.250;6.778;2023-04-12T11:22:04;99398.91;;;14.00;91.88
22830;BME280;11581;51.250;6.778;2023-04-12T11:24:30;99397.09;;;14.07;92.49
22830;BME280;11581;51.250;6.778;2023-04-12T11:26:58;99397.94;;;14.14;92.60
22830;BME280;11581;51.250;6.778;2023-04-12T11:29:28;99397.94;;;14.21;92.46
22830;BME280;11581;51.250;6.778;2023-04-12T11:31:57;99400.06;;;14.32;93.40
22830;BME280;11581;51.250;6.778;2023-04-12T11:34:23;99369.91;;;14.23;93.76
22830;BME280;11581;51.250;6.778;2023-04-12T11:36:51;99397.22;;;14.59;94.48
22830;BME280;11581;51.250;6.778;2023-04-12T11:39:19;99366.22;;;14.57;94.92
22830;BME280;11581;51.250;6.778;2023-04-12T11:41:47;99402.59;;;14.98;95.40
22830;BME280;11581;51.250;6.778;2023-04-12T11:44:14;99344.78;;;14.89;96.72
22830;BME280;11581;51.250;6.778;2023-04-12T11:46:43;99387.41;;;15.56;98.00
22830;BME280;11581;51.250;6.778;2023-04-12T11:49:13;99387.66;;;15.99;99.04
22830;BME280;11581;51.250;6.778;2023-04-12T11:51:42;99265.75;;;15.80;100.00
22830;BME280;11581;51.250;6.778;2023-04-12T11:54:09;99392.38;;;17.21;100.00
22830;BME280;11581;51.250;6.778;2023-04-12T11:56:37;99395.41;;;17.85;100.00
22830;BME280;11581;51.250;6.778;2023-04-12T11:59:04;99393.94;;;18.48;99.37
22830;BME280;11581;51.250;6.778;2023-04-12T12:01:33;99343.91;;;18.75;96.10
22830;BME280;11581;51.250;6.778;2023-04-12T12:04:00;99394.78;;;19.47;94.36
22830;BME280;11581;51.250;6.778;2023-04-12T12:06:26;99394.72;;;19.82;91.97
22830;BME280;11581;51.250;6.778;2023-04-12T12:08:54;99398.06;;;20.12;87.57
22830;BME280;11581;51.250;6.778;2023-04-12T12:11:22;99390.09;;;20.34;84.99
22830;BME280;11581;51.250;6.778;2023-04-12T12:13:53;99386.59;;;20.50;75.16
22830;BME280;11581;51.250;6.778;2023-04-12T12:16:28;99378.06;;;20.58;70.51
22830;BME280;11581;51.250;6.778;2023-04-12T12:18:55;99390.22;;;20.72;76.46
22830;BME280;11581;51.250;6.778;2023-04-12T12:21:22;99350.97;;;20.41;74.10
22830;BME280;11581;51.250;6.778;2023-04-12T12:23:50;99381.84;;;20.73;73.24
22830;BME280;11581;51.250;6.778;2023-04-12T12:26:24;99312.38;;;20.18;63.33
22830;BME280;11581;51.250;6.778;2023-04-12T12:28:56;99381.19;;;20.50;64.47
22830;BME280;11581;51.250;6.778;2023-04-12T12:31:26;99395.03;;;20.37;67.39
22830;BME280;11581;51.250;6.778;2023-04-12T12:33:54;99384.88;;;20.16;67.65
22830;BME280;11581;51.250;6.778;2023-04-12T12:36:32;99389.16;;;20.00;61.77
22830;BME280;11581;51.250;6.778;2023-04-12T12:39:17;99367.09;;;19.68;62.79
22830;BME280;11581;51.250;6.778;2023-04-12T12:41:52;99270.94;;;19.10;65.24
22830;BME280;11581;51.250;6.778;2023-04-12T12:44:19;99374.94;;;19.81;73.94
22830;BME280;11581;51.250;6.778;2023-04-12T12:46:45;99379.72;;;20.03;74.05
22830;BME280;11581;51.250;6.778;2023-04-12T12:49:12;99330.09;;;19.97;73.95
22830;BME280;11581;51.250;6.778;2023-04-12T12:51:38;99367.91;;;20.48;73.08
22830;BME280;11581;51.250;6.778;2023-04-12T12:54:05;99373.91;;;20.67;71.13
22830;BME280;11581;51.250;6.778;2023-04-12T12:56:31;99362.75;;;20.80;70.02
22830;BME280;11581;51.250;6.778;2023-04-12T12:58:59;99364.72;;;20.84;70.22
22830;BME280;11581;51.250;6.778;2023-04-12T13:01:26;99301.25;;;20.47;69.29
22830;BME280;11581;51.250;6.778;2023-04-12T13:03:53;99315.03;;;20.46;68.44
22830;BME280;11581;51.250;6.778;2023-04-12T13:06:21;99369.25;;;20.79;66.04
22830;BME280;11581;51.250;6.778;2023-04-12T13:08:47;99368.56;;;20.72;66.72
22830;BME280;11581;51.250;6.778;2023-04-12T13:11:13;99367.72;;;20.55;65.15
22830;BME280;11581;51.250;6.778;2023-04-12T13:13:40;99372.97;;;20.45;65.09
22830;BME280;11581;51.250;6.778;2023-04-12T13:16:06;99368.81;;;20.26;64.23
22830;BME280;11581;51.250;6.778;2023-04-12T13:18:33;99370.03;;;20.07;64.57
22830;BME280;11581;51.250;6.778;2023-04-12T13:21:00;99365.88;;;19.87;65.77
22830;BME280;11581;51.250;6.778;2023-04-12T13:23:26;99324.09;;;19.55;65.23
22830;BME280;11581;51.250;6.778;2023-04-12T13:25:53;99371.09;;;19.77;65.47
22830;BME280;11581;51.250;6.778;2023-04-12T13:28:19;99352.41;;;19.64;65.02
22830;BME280;11581;51.250;6.778;2023-04-12T13:30:46;99366.06;;;19.69;65.10
22830;BME280;11581;51.250;6.778;2023-04-12T13:33:13;99367.09;;;19.68;64.47
22830;BME280;11581;51.250;6.778;2023-04-12T13:35:39;99344.00;;;19.49;63.85
22830;BME280;11581;51.250;6.778;2023-04-12T13:38:05;99302.91;;;19.13;63.55
22830;BME280;11581;51.250;6.778;2023-04-12T13:40:32;99366.47;;;19.38;63.27
22830;BME280;11581;51.250;6.778;2023-04-12T13:42:58;99384.31;;;19.28;62.38